Umesato — JPKZ — position and weather

sailwx.info

Track history (hours):
 
Tides and Currents Weather Stations Pressure Air Temp Water Temp Dewpoint Dewpoint Depression Visibility Wind Speed Wind Dir Waves Ship Positions

Umesato

Last reported at 2017-Dec-17 21:17 UTC. Time now 2017-Dec-18 14:26 UTC.
Position N 09°16' W 079°55'.

Length 65 m; draft 5 m.

Type: Other ship. MMSI: 432195000.

Date/timePositionNaut miles runAvg speedWind from/ knotsBaromVisibWave heightAir tempDewpointWater temp
2017-Dec-17 21:17N 09°16' W 079°55'0 0.3
2017-Dec-17 21:00N 09°16' W 079°55'0 0.5
2017-Dec-17 20:30N 09°17' W 079°55'1 1.7
2017-Dec-17 19:57N 09°18' W 079°55'3 7.4
2017-Dec-17 19:30N 09°21' W 079°55'2 3.0
2017-Dec-17 19:00N 09°22' W 079°55'0 0.0
2017-Dec-17 18:30N 09°22' W 079°55'0 0.0
2017-Dec-17 18:00N 09°22' W 079°55'0 0.0
2017-Dec-17 17:30N 09°22' W 079°55'0 0.0
2017-Dec-17 17:00N 09°22' W 079°55'0 0.0
2017-Dec-17 16:30N 09°22' W 079°55'0 0.1
2017-Dec-17 16:00N 09°22' W 079°55'3 5.9
2017-Dec-17 15:30N 09°25' W 079°55'5 9.2
2017-Dec-17 15:00N 09°30' W 079°53'  
Track history (hours):
 
Tides and Currents Weather Stations Pressure Air Temp Water Temp Dewpoint Dewpoint Depression Visibility Wind Speed Wind Dir Waves Ship Positions

Umesato

Last reported at 2017-Dec-17 21:17 UTC. Time now 2017-Dec-18 14:26 UTC.
Position N 09°16' W 079°55'.

Length 65 m; draft 5 m.

Type: Other ship. MMSI: 432195000.

Date/timePositionNaut miles runAvg speedWind from/ knotsBaromVisibWave heightAir tempDewpointWater temp
2017-Dec-17 21:17N 09°16' W 079°55'0 0.3
2017-Dec-17 21:00N 09°16' W 079°55'0 0.5
2017-Dec-17 20:30N 09°17' W 079°55'1 1.7
2017-Dec-17 19:57N 09°18' W 079°55'3 7.4
2017-Dec-17 19:30N 09°21' W 079°55'2 3.0
2017-Dec-17 19:00N 09°22' W 079°55'0 0.0
2017-Dec-17 18:30N 09°22' W 079°55'0 0.0
2017-Dec-17 18:00N 09°22' W 079°55'0 0.0
2017-Dec-17 17:30N 09°22' W 079°55'0 0.0
2017-Dec-17 17:00N 09°22' W 079°55'0 0.0
2017-Dec-17 16:30N 09°22' W 079°55'0 0.1
2017-Dec-17 16:00N 09°22' W 079°55'3 5.9
2017-Dec-17 15:30N 09°25' W 079°55'5 9.2
2017-Dec-17 15:00N 09°30' W 079°53'  

Dump ship's entire track history